createdAt,value
2019-05-18T00:00:50.965Z,10.49
2019-05-18T00:01:50.958Z,10.31
2019-05-18T00:02:50.958Z,10.33
2019-05-18T00:03:50.929Z,10.37
2019-05-18T00:04:50.960Z,10.35
2019-05-18T00:05:50.914Z,10.34
2019-05-18T00:06:50.923Z,10.31
2019-05-18T00:07:50.899Z,10.23
2019-05-18T00:08:50.884Z,10.31
2019-05-18T00:09:50.896Z,10.30
2019-05-18T00:10:50.860Z,10.31
2019-05-18T00:11:50.917Z,10.26
2019-05-18T00:12:50.899Z,10.30
2019-05-18T00:13:50.850Z,10.23
2019-05-18T00:14:50.866Z,10.20
2019-05-18T00:15:50.845Z,10.34
2019-05-18T00:16:50.840Z,10.22
2019-05-18T00:17:50.799Z,10.20
2019-05-18T00:18:50.793Z,10.25
2019-05-18T00:19:50.787Z,10.25
2019-05-18T00:20:50.804Z,10.13
2019-05-18T00:21:50.772Z,10.19
2019-05-18T00:22:50.783Z,10.19
2019-05-18T00:23:50.715Z,10.13
2019-05-18T00:24:50.716Z,10.22
2019-05-18T00:25:50.696Z,10.10
2019-05-18T00:26:50.681Z,10.20
2019-05-18T00:27:50.685Z,10.12
2019-05-18T00:28:50.672Z,10.19
2019-05-18T00:29:50.657Z,10.23
2019-05-18T00:30:50.640Z,10.20
2019-05-18T00:31:50.633Z,10.23
2019-05-18T00:32:50.638Z,10.25
2019-05-18T00:33:50.685Z,10.25
2019-05-18T00:34:50.594Z,10.22
2019-05-18T00:35:50.582Z,10.20
2019-05-18T00:36:50.574Z,10.19
2019-05-18T00:37:50.588Z,10.19
2019-05-18T00:38:50.550Z,10.25
2019-05-18T00:39:50.539Z,10.19
2019-05-18T00:40:50.529Z,10.23
2019-05-18T00:41:50.538Z,10.22
2019-05-18T00:42:50.511Z,10.23
2019-05-18T00:43:50.521Z,10.19
2019-05-18T00:44:50.491Z,10.19
2019-05-18T00:45:50.478Z,10.17
2019-05-18T00:46:50.463Z,10.20
2019-05-18T00:47:50.458Z,10.25
2019-05-18T00:48:50.455Z,10.26
2019-05-18T00:49:50.433Z,10.12
2019-05-18T00:50:50.433Z,10.10
2019-05-18T00:51:50.412Z,10.09
2019-05-18T00:52:50.407Z,10.04
2019-05-18T00:53:50.397Z,10.15
2019-05-18T00:54:50.389Z,10.15
2019-05-18T00:55:50.402Z,10.16
2019-05-18T00:56:50.364Z,10.16
2019-05-18T00:57:50.345Z,10.05
2019-05-18T00:58:50.365Z,10.16
2019-05-18T00:59:50.326Z,10.04
2019-05-18T01:00:50.316Z,10.05
2019-05-18T01:01:50.307Z,10.04
2019-05-18T01:02:50.292Z,10.04
2019-05-18T01:03:50.285Z,10.05
2019-05-18T01:04:50.270Z,10.04
2019-05-18T01:05:50.270Z,9.97
2019-05-18T01:06:50.249Z,10.01
2019-05-18T01:07:50.243Z,9.98
2019-05-18T01:08:50.236Z,9.92
2019-05-18T01:09:50.230Z,9.99
2019-05-18T01:10:50.207Z,9.89
2019-05-18T01:11:50.199Z,9.98
2019-05-18T01:12:50.184Z,9.95
2019-05-18T01:13:50.182Z,9.94
2019-05-18T01:14:50.162Z,9.97
2019-05-18T01:15:50.151Z,9.92
2019-05-18T01:16:50.152Z,9.94
2019-05-18T01:17:57.504Z,9.91
2019-05-18T01:18:51.166Z,9.97
2019-05-18T01:19:50.113Z,9.95
2019-05-18T01:20:50.096Z,9.95
2019-05-18T01:21:50.088Z,9.87
2019-05-18T01:22:50.075Z,9.95
2019-05-18T01:23:50.067Z,9.84
2019-05-18T01:24:50.087Z,9.82
2019-05-18T01:25:50.042Z,9.77
2019-05-18T01:26:50.030Z,9.83
2019-05-18T01:27:50.019Z,9.86
2019-05-18T01:28:50.027Z,9.83
2019-05-18T01:29:50.000Z,9.80
2019-05-18T01:30:49.987Z,9.73
2019-05-18T01:31:50.046Z,9.69
2019-05-18T01:32:49.967Z,9.74
2019-05-18T01:33:49.964Z,9.76
2019-05-18T01:34:49.945Z,9.79
2019-05-18T01:35:49.937Z,9.79
2019-05-18T01:36:49.924Z,9.74
2019-05-18T01:37:49.911Z,9.80
2019-05-18T01:38:49.915Z,9.79
2019-05-18T01:39:49.889Z,9.77
2019-05-18T01:40:49.880Z,9.73
2019-05-18T01:41:49.881Z,9.74
2019-05-18T01:42:49.860Z,9.66
2019-05-18T01:43:49.874Z,9.74
2019-05-18T01:44:49.838Z,9.64
2019-05-18T01:45:49.831Z,9.69
2019-05-18T01:46:49.815Z,9.68
2019-05-18T01:47:49.804Z,9.65
2019-05-18T01:48:49.794Z,9.69
2019-05-18T01:49:49.792Z,9.69
2019-05-18T01:50:49.776Z,9.69
2019-05-18T01:51:49.761Z,9.68
2019-05-18T01:52:49.752Z,9.64
2019-05-18T01:53:49.809Z,9.64
2019-05-18T01:54:49.734Z,9.58
2019-05-18T01:55:49.720Z,9.61
2019-05-18T01:56:49.714Z,9.64
2019-05-18T01:57:49.698Z,9.61
2019-05-18T01:58:49.694Z,9.56
2019-05-18T01:59:49.679Z,9.55
2019-05-18T02:00:49.675Z,9.55
2019-05-18T02:01:49.655Z,9.51
2019-05-18T02:02:49.647Z,9.55
2019-05-18T02:03:49.636Z,9.50
2019-05-18T02:04:49.632Z,9.55
2019-05-18T02:05:49.619Z,9.62
2019-05-18T02:06:49.608Z,9.58
2019-05-18T02:07:49.598Z,9.46
2019-05-18T02:08:49.585Z,9.48
2019-05-18T02:09:49.580Z,9.47
2019-05-18T02:10:49.560Z,9.47
2019-05-18T02:11:49.551Z,9.43
2019-05-18T02:12:49.538Z,9.43
2019-05-18T02:13:49.536Z,9.43
2019-05-18T02:14:49.528Z,9.46
2019-05-18T02:15:49.528Z,9.43
2019-05-18T02:16:49.495Z,9.41
2019-05-18T02:17:49.492Z,9.47
2019-05-18T02:18:49.474Z,9.44
2019-05-18T02:19:49.475Z,9.36
2019-05-18T02:20:49.453Z,9.39
2019-05-18T02:21:49.455Z,9.39
2019-05-18T02:22:49.428Z,9.31
2019-05-18T02:23:49.418Z,9.43
2019-05-18T02:24:49.412Z,9.29
2019-05-18T02:25:49.403Z,9.36
2019-05-18T02:26:49.387Z,9.28
2019-05-18T02:27:49.384Z,9.36
2019-05-18T02:28:49.366Z,9.34
2019-05-18T02:29:49.356Z,9.23
2019-05-18T02:30:49.348Z,9.32
2019-05-18T02:31:49.336Z,9.34
2019-05-18T02:32:49.324Z,9.36
2019-05-18T02:33:49.310Z,9.25
2019-05-18T02:34:49.313Z,9.26
2019-05-18T02:35:49.295Z,9.23
2019-05-18T02:36:49.277Z,9.29
2019-05-18T02:37:49.282Z,9.32
2019-05-18T02:38:49.269Z,9.28
2019-05-18T02:39:49.271Z,9.36
2019-05-18T02:40:49.236Z,9.29
2019-05-18T02:41:49.245Z,9.26
2019-05-18T02:42:49.219Z,9.32
2019-05-18T02:43:49.208Z,9.25
2019-05-18T02:44:49.193Z,9.25
2019-05-18T02:45:49.184Z,9.25
2019-05-18T02:46:49.171Z,9.32
2019-05-18T02:47:49.184Z,9.29
2019-05-18T02:48:50.650Z,9.13
2019-05-18T02:49:49.138Z,9.29
2019-05-18T02:50:49.133Z,9.25
2019-05-18T02:51:49.121Z,9.28
2019-05-18T02:52:49.110Z,9.19
2019-05-18T02:53:49.094Z,9.23
2019-05-18T02:54:49.085Z,9.28
2019-05-18T02:55:49.078Z,9.22
2019-05-18T02:56:49.063Z,9.23
2019-05-18T02:57:49.068Z,9.31
2019-05-18T02:58:49.043Z,9.31
2019-05-18T02:59:49.042Z,9.28
2019-05-18T03:00:49.025Z,9.25
2019-05-18T03:01:49.010Z,9.26
2019-05-18T03:02:48.999Z,9.28
2019-05-18T03:03:48.992Z,9.25
2019-05-18T03:04:48.986Z,9.28
2019-05-18T03:05:48.975Z,9.29
2019-05-18T03:06:48.961Z,9.22
2019-05-18T03:07:48.950Z,9.25
2019-05-18T03:08:48.935Z,9.29
2019-05-18T03:09:48.936Z,9.22
2019-05-18T03:10:48.927Z,9.25
2019-05-18T03:11:48.909Z,9.23
2019-05-18T03:12:48.900Z,9.25
2019-05-18T03:13:48.924Z,9.22
2019-05-18T03:14:48.873Z,9.29
2019-05-18T03:15:48.869Z,9.25
2019-05-18T03:16:48.853Z,9.28
2019-05-18T03:17:48.840Z,9.23
2019-05-18T03:19:06.806Z,9.14
2019-05-18T03:19:49.816Z,9.16
2019-05-18T03:20:48.809Z,9.21
2019-05-18T03:21:48.798Z,9.23
2019-05-18T03:22:48.789Z,9.21
2019-05-18T03:23:48.775Z,9.18
2019-05-18T03:24:48.764Z,9.16
2019-05-18T03:25:48.763Z,9.16
2019-05-18T03:26:48.748Z,9.11
2019-05-18T03:27:48.731Z,9.13
2019-05-18T03:28:48.721Z,9.10
2019-05-18T03:29:48.718Z,9.10
2019-05-18T03:30:48.724Z,9.08
2019-05-18T03:31:48.702Z,9.04
2019-05-18T03:32:48.683Z,9.00
2019-05-18T03:33:48.675Z,9.08
2019-05-18T03:34:48.658Z,9.13
2019-05-18T03:35:48.705Z,8.99
2019-05-18T03:36:48.640Z,8.95
2019-05-18T03:37:48.624Z,9.06
2019-05-18T03:38:48.616Z,9.03
2019-05-18T03:39:48.604Z,8.94
2019-05-18T03:40:48.609Z,8.89
2019-05-18T03:41:48.596Z,8.95
2019-05-18T03:42:48.571Z,8.95
2019-05-18T03:43:48.564Z,8.97
2019-05-18T03:44:48.565Z,8.94
2019-05-18T03:45:48.553Z,8.89
2019-05-18T03:46:48.538Z,8.97
2019-05-18T03:47:48.519Z,8.94
2019-05-18T03:48:48.512Z,8.89
2019-05-18T03:49:48.502Z,8.92
2019-05-18T03:50:48.534Z,8.95
2019-05-18T03:51:48.503Z,8.95
2019-05-18T03:52:48.469Z,8.97
2019-05-18T03:53:48.455Z,8.99
2019-05-18T03:54:48.455Z,9.02
2019-05-18T03:55:48.444Z,9.00
2019-05-18T03:56:48.435Z,9.02
2019-05-18T03:57:48.478Z,9.06
2019-05-18T03:58:48.407Z,9.04
2019-05-18T03:59:48.389Z,9.03
2019-05-18T04:00:48.450Z,9.08
2019-05-18T04:01:48.374Z,9.06
2019-05-18T04:02:48.363Z,9.03
2019-05-18T04:03:48.366Z,9.03
2019-05-18T04:04:48.455Z,8.99
2019-05-18T04:05:48.354Z,9.11
2019-05-18T04:06:48.313Z,9.14
2019-05-18T04:07:48.343Z,9.00
2019-05-18T04:08:48.298Z,9.00
2019-05-18T04:09:48.297Z,9.13
2019-05-18T04:10:48.272Z,9.00
2019-05-18T04:11:48.261Z,9.00
2019-05-18T04:12:48.251Z,9.00
2019-05-18T04:13:48.297Z,8.99
2019-05-18T04:14:48.230Z,8.99
2019-05-18T04:15:48.239Z,9.13
2019-05-18T04:16:48.270Z,9.11
2019-05-18T04:17:48.201Z,9.14
2019-05-18T04:18:48.185Z,9.11
2019-05-18T04:19:48.175Z,9.16
2019-05-18T04:20:48.166Z,9.16
2019-05-18T04:21:48.152Z,9.18
2019-05-18T04:22:48.144Z,9.21
2019-05-18T04:23:48.132Z,9.19
2019-05-18T04:24:48.127Z,9.25
2019-05-18T04:25:48.107Z,9.18
2019-05-18T04:26:48.126Z,9.28
2019-05-18T04:27:48.089Z,9.23
2019-05-18T04:28:48.077Z,9.29
2019-05-18T04:29:48.069Z,9.32
2019-05-18T04:30:48.054Z,9.26
2019-05-18T04:31:48.064Z,9.25
2019-05-18T04:32:48.041Z,9.29
2019-05-18T04:33:48.076Z,9.29
2019-05-18T04:34:48.013Z,9.25
2019-05-18T04:35:48.004Z,9.40
2019-05-18T04:36:48.000Z,9.31
2019-05-18T04:37:47.985Z,9.37
2019-05-18T04:38:47.973Z,9.23
2019-05-18T04:39:47.958Z,9.25
2019-05-18T04:40:47.948Z,9.29
2019-05-18T04:41:47.948Z,9.29
2019-05-18T04:42:47.942Z,9.31
2019-05-18T04:43:47.916Z,9.25
2019-05-18T04:44:47.927Z,9.34
2019-05-18T04:45:47.894Z,9.34
2019-05-18T04:46:47.895Z,9.32
2019-05-18T04:47:48.799Z,9.32
2019-05-18T04:48:47.879Z,9.31
2019-05-18T04:50:03.876Z,9.39
2019-05-18T04:50:48.840Z,9.29
2019-05-18T04:51:47.847Z,9.44
2019-05-18T04:52:47.822Z,9.36
2019-05-18T04:53:47.879Z,9.40
2019-05-18T04:54:47.797Z,9.46
2019-05-18T04:55:47.867Z,9.46
2019-05-18T04:56:47.801Z,9.47
2019-05-18T04:57:47.768Z,9.47
2019-05-18T04:58:47.756Z,9.50
2019-05-18T04:59:47.748Z,9.48
2019-05-18T05:00:47.741Z,9.58
2019-05-18T05:01:47.770Z,9.58
2019-05-18T05:02:47.721Z,9.65
2019-05-18T05:03:47.705Z,9.62
2019-05-18T05:04:51.362Z,9.65
2019-05-18T05:05:48.688Z,9.59
2019-05-18T05:06:47.701Z,9.59
2019-05-18T05:07:47.663Z,9.74
2019-05-18T05:08:47.648Z,9.73
2019-05-18T05:09:47.640Z,9.74
2019-05-18T05:10:47.625Z,9.80
2019-05-18T05:11:47.615Z,9.79
2019-05-18T05:12:47.610Z,9.82
2019-05-18T05:13:47.598Z,9.80
2019-05-18T05:14:47.584Z,9.84
2019-05-18T05:15:47.579Z,9.84
2019-05-18T05:16:47.563Z,9.86
2019-05-18T05:17:47.643Z,9.94
2019-05-18T05:18:47.547Z,9.92
2019-05-18T05:19:47.532Z,9.97
2019-05-18T05:20:47.521Z,9.94
2019-05-18T05:21:47.510Z,9.94
2019-05-18T05:22:47.505Z,10.01
2019-05-18T05:23:47.487Z,9.95
2019-05-18T05:24:47.493Z,10.05
2019-05-18T05:25:47.468Z,10.05
2019-05-18T05:26:47.484Z,10.02
2019-05-18T05:27:47.459Z,10.07
2019-05-18T05:28:47.433Z,10.10
2019-05-18T05:29:47.431Z,10.13
2019-05-18T05:30:47.413Z,10.17
2019-05-18T05:31:47.401Z,10.23
2019-05-18T05:32:47.410Z,10.19
2019-05-18T05:33:47.407Z,10.20
2019-05-18T05:34:47.384Z,10.20
2019-05-18T05:35:47.390Z,10.31
2019-05-18T05:36:47.372Z,10.30
2019-05-18T05:37:47.386Z,10.37
2019-05-18T05:38:47.349Z,10.37
2019-05-18T05:39:47.347Z,10.37
2019-05-18T05:40:47.325Z,10.35
2019-05-18T05:41:47.439Z,10.46
2019-05-18T05:42:47.291Z,10.51
2019-05-18T05:43:47.304Z,10.54
2019-05-18T05:44:47.263Z,10.59
2019-05-18T05:45:47.255Z,10.56
2019-05-18T05:46:47.269Z,10.61
2019-05-18T05:47:47.231Z,10.60
2019-05-18T05:48:47.219Z,10.71
2019-05-18T05:49:47.221Z,10.63
2019-05-18T05:50:47.194Z,10.69
2019-05-18T05:51:47.186Z,10.69
2019-05-18T05:52:47.187Z,10.78
2019-05-18T05:53:47.187Z,10.90
2019-05-18T05:54:47.150Z,10.84
2019-05-18T05:55:47.139Z,10.87
2019-05-18T05:56:47.137Z,10.92
2019-05-18T05:57:47.120Z,10.96
2019-05-18T05:58:47.114Z,10.96
2019-05-18T05:59:47.100Z,10.99
2019-05-18T06:00:47.086Z,11.07
2019-05-18T06:01:47.072Z,11.05
2019-05-18T06:02:47.069Z,11.10
2019-05-18T06:03:47.056Z,11.08
2019-05-18T06:04:47.043Z,11.18
2019-05-18T06:05:47.028Z,11.25
2019-05-18T06:06:47.019Z,11.22
2019-05-18T06:07:47.019Z,11.18
2019-05-18T06:08:47.001Z,11.29
2019-05-18T06:09:46.988Z,11.43
2019-05-18T06:10:46.976Z,11.40
2019-05-18T06:11:46.972Z,11.36
2019-05-18T06:12:46.990Z,11.36
2019-05-18T06:13:46.939Z,11.35
2019-05-18T06:14:46.929Z,11.33
2019-05-18T06:15:46.917Z,11.48
2019-05-18T06:16:46.907Z,11.54
2019-05-18T06:17:46.914Z,11.54
2019-05-18T06:18:46.895Z,11.57
2019-05-18T06:19:46.876Z,11.57
2019-05-18T06:20:51.301Z,11.62
2019-05-18T06:21:47.884Z,11.60
2019-05-18T06:22:47.109Z,11.70
2019-05-18T06:23:46.850Z,11.81
2019-05-18T06:24:46.854Z,11.77
2019-05-18T06:25:46.830Z,11.84
2019-05-18T06:26:46.795Z,11.88
2019-05-18T06:27:46.815Z,11.86
2019-05-18T06:28:46.817Z,11.95
2019-05-18T06:29:46.772Z,11.99
2019-05-18T06:30:46.754Z,11.99
2019-05-18T06:31:46.743Z,11.95
2019-05-18T06:32:46.732Z,11.94
2019-05-18T06:33:46.768Z,12.09
2019-05-18T06:34:46.712Z,12.12
2019-05-18T06:35:46.700Z,12.20
2019-05-18T06:36:46.689Z,12.20
2019-05-18T06:37:46.673Z,12.18
2019-05-18T06:38:46.675Z,12.29
2019-05-18T06:39:46.652Z,12.28
2019-05-18T06:40:46.639Z,12.35
2019-05-18T06:41:46.633Z,12.39
2019-05-18T06:42:46.647Z,12.29
2019-05-18T06:43:46.617Z,12.37
2019-05-18T06:44:46.600Z,12.50
2019-05-18T06:45:46.585Z,12.50
2019-05-18T06:46:46.573Z,12.46
2019-05-18T06:47:48.455Z,12.46
2019-05-18T06:48:46.560Z,12.57
2019-05-18T06:49:46.541Z,12.65
2019-05-18T06:50:46.533Z,12.58
2019-05-18T06:51:46.527Z,12.65
2019-05-18T06:52:46.521Z,12.72
2019-05-18T06:53:46.508Z,12.75
2019-05-18T06:54:46.484Z,12.75
2019-05-18T06:55:46.472Z,12.79
2019-05-18T06:56:46.463Z,12.91
2019-05-18T06:57:46.453Z,12.94
2019-05-18T06:58:46.472Z,12.95
2019-05-18T06:59:46.432Z,13.04
2019-05-18T07:00:46.417Z,13.13
2019-05-18T07:01:46.410Z,13.19
2019-05-18T07:02:46.400Z,13.33
2019-05-18T07:03:46.401Z,13.25
2019-05-18T07:04:46.375Z,13.41
2019-05-18T07:05:46.361Z,13.42
2019-05-18T07:06:46.355Z,13.46
2019-05-18T07:07:46.377Z,13.49
2019-05-18T07:08:46.350Z,13.54
2019-05-18T07:09:46.325Z,13.65
2019-05-18T07:10:46.310Z,13.62
2019-05-18T07:11:46.299Z,13.74
2019-05-18T07:12:46.286Z,13.77
2019-05-18T07:13:46.309Z,13.81
2019-05-18T07:14:46.336Z,13.87
2019-05-18T07:15:46.308Z,13.99
2019-05-18T07:16:46.249Z,14.10
2019-05-18T07:17:46.239Z,14.14
2019-05-18T07:18:46.328Z,14.10
2019-05-18T07:19:46.210Z,14.25
2019-05-18T07:20:46.300Z,14.25
2019-05-18T07:21:46.187Z,14.35
2019-05-18T07:22:46.177Z,14.35
2019-05-18T07:23:46.180Z,14.47
2019-05-18T07:24:46.176Z,14.50
2019-05-18T07:25:46.147Z,14.48
2019-05-18T07:26:46.134Z,14.62
2019-05-18T07:27:46.157Z,14.60
2019-05-18T07:28:46.131Z,14.63
2019-05-18T07:29:46.101Z,14.73
2019-05-18T07:30:46.090Z,14.79
2019-05-18T07:31:46.091Z,14.79
2019-05-18T07:32:46.073Z,14.89
2019-05-18T07:33:46.100Z,14.85
2019-05-18T07:34:46.048Z,14.99
2019-05-18T07:35:46.037Z,15.09
2019-05-18T07:36:46.038Z,15.10
2019-05-18T07:37:46.021Z,15.24
2019-05-18T07:38:46.004Z,15.29
2019-05-18T07:39:45.995Z,15.36
2019-05-18T07:40:45.988Z,15.35
2019-05-18T07:41:47.200Z,15.49
2019-05-18T07:42:45.995Z,15.57
2019-05-18T07:43:45.949Z,15.64
2019-05-18T07:44:45.942Z,15.64
2019-05-18T07:45:45.929Z,15.70
2019-05-18T07:46:45.915Z,15.82
2019-05-18T07:47:45.906Z,15.88
2019-05-18T07:48:45.900Z,15.94
2019-05-18T07:49:45.916Z,16.05
2019-05-18T07:50:45.871Z,16.16
2019-05-18T07:51:45.870Z,16.12
2019-05-18T07:52:45.851Z,16.28
2019-05-18T07:53:45.839Z,16.33
2019-05-18T07:54:45.842Z,16.39
2019-05-18T07:55:45.822Z,16.38
2019-05-18T07:56:45.813Z,16.49
2019-05-18T07:57:46.550Z,16.51
2019-05-18T07:58:45.784Z,16.65
2019-05-18T07:59:45.785Z,16.53
2019-05-18T08:00:45.768Z,16.57
2019-05-18T08:01:45.756Z,16.66
2019-05-18T08:02:45.743Z,16.66
2019-05-18T08:03:45.730Z,16.86
2019-05-18T08:04:45.736Z,16.89
2019-05-18T08:05:45.711Z,16.96
2019-05-18T08:06:45.706Z,16.99
2019-05-18T08:07:45.687Z,17.11
2019-05-18T08:08:45.703Z,17.15
2019-05-18T08:09:45.678Z,17.20
2019-05-18T08:10:45.679Z,17.31
2019-05-18T08:11:45.774Z,17.31
2019-05-18T08:12:45.635Z,17.34
2019-05-18T08:13:45.623Z,17.44
2019-05-18T08:14:45.620Z,17.46
2019-05-18T08:15:45.598Z,17.54
2019-05-18T08:16:45.590Z,17.63
2019-05-18T08:17:45.585Z,17.67
2019-05-18T08:18:45.571Z,17.76
2019-05-18T08:19:45.567Z,17.72
2019-05-18T08:20:45.548Z,17.82
2019-05-18T08:21:53.237Z,17.82
2019-05-18T08:22:46.528Z,17.92
2019-05-18T08:23:45.515Z,17.94
2019-05-18T08:24:45.525Z,17.94
2019-05-18T08:25:45.493Z,18.03
2019-05-18T08:26:45.484Z,18.01
2019-05-18T08:27:45.474Z,18.07
2019-05-18T08:28:45.466Z,18.15
2019-05-18T08:29:45.453Z,18.16
2019-05-18T08:30:45.451Z,18.25
2019-05-18T08:31:45.430Z,18.22
2019-05-18T08:32:45.474Z,18.33
2019-05-18T08:33:45.418Z,18.37
2019-05-18T08:34:45.403Z,18.44
2019-05-18T08:35:45.394Z,18.44
2019-05-18T08:36:45.377Z,18.53
2019-05-18T08:37:45.366Z,18.47
2019-05-18T08:38:45.356Z,18.49
2019-05-18T08:39:45.347Z,18.59
2019-05-18T08:40:45.338Z,18.60
2019-05-18T08:41:48.614Z,18.62
2019-05-18T08:42:45.316Z,18.62
2019-05-18T08:43:45.322Z,18.71
2019-05-18T08:44:45.288Z,18.71
2019-05-18T08:45:45.288Z,18.75
2019-05-18T08:46:45.269Z,18.84
2019-05-18T08:47:45.256Z,18.95
2019-05-18T08:48:45.248Z,19.11
2019-05-18T08:49:45.235Z,19.24
2019-05-18T08:50:45.230Z,19.58
2019-05-18T08:51:45.247Z,19.67
2019-05-18T08:52:45.208Z,19.88
2019-05-18T08:53:45.191Z,19.92
2019-05-18T08:54:45.181Z,20.19
2019-05-18T08:55:45.171Z,20.28
2019-05-18T08:56:45.161Z,20.44
2019-05-18T08:57:45.164Z,20.59
2019-05-18T08:58:45.186Z,20.85
2019-05-18T08:59:45.139Z,21.12
2019-05-18T09:00:45.125Z,21.14
2019-05-18T09:01:45.109Z,21.30
2019-05-18T09:02:45.173Z,21.32
2019-05-18T09:03:45.090Z,21.39
2019-05-18T09:04:45.073Z,21.46
2019-05-18T09:05:45.070Z,21.52
2019-05-18T09:06:45.049Z,21.61
2019-05-18T09:07:45.072Z,21.72
2019-05-18T09:08:45.028Z,21.83
2019-05-18T09:09:45.021Z,21.95
2019-05-18T09:10:45.014Z,21.91
2019-05-18T09:11:44.993Z,21.95
2019-05-18T09:12:44.981Z,21.85
2019-05-18T09:13:44.989Z,21.69
2019-05-18T09:14:44.965Z,21.73
2019-05-18T09:15:44.956Z,21.73
2019-05-18T09:16:44.947Z,21.55
2019-05-18T09:17:44.926Z,21.40
2019-05-18T09:18:44.916Z,21.25
2019-05-18T09:19:44.909Z,21.27
2019-05-18T09:20:44.896Z,21.29
2019-05-18T09:21:44.885Z,21.21
2019-05-18T09:22:44.875Z,21.12
2019-05-18T09:23:44.861Z,21.07
2019-05-18T09:24:44.889Z,21.09
2019-05-18T09:25:44.847Z,21.02
2019-05-18T09:26:44.841Z,20.96
2019-05-18T09:27:44.821Z,20.93
2019-05-18T09:28:44.834Z,20.96
2019-05-18T09:29:44.797Z,20.97
2019-05-18T09:30:44.786Z,20.95
2019-05-18T09:31:44.852Z,20.92
2019-05-18T09:32:44.767Z,20.80
2019-05-18T09:33:44.763Z,20.78
2019-05-18T09:34:44.739Z,20.78
2019-05-18T09:35:44.737Z,20.88
2019-05-18T09:36:44.717Z,20.82
2019-05-18T09:37:44.712Z,20.88
2019-05-18T09:38:44.703Z,20.81
2019-05-18T09:39:44.694Z,20.84
2019-05-18T09:40:44.690Z,20.96
2019-05-18T09:41:44.683Z,20.88
2019-05-18T09:42:44.656Z,20.93
2019-05-18T09:43:44.639Z,20.92
2019-05-18T09:44:44.635Z,20.90
2019-05-18T09:45:44.620Z,21.00
2019-05-18T09:46:44.610Z,20.96
2019-05-18T09:47:44.597Z,20.95
2019-05-18T09:48:44.585Z,21.03
2019-05-18T09:49:44.573Z,21.05
2019-05-18T09:50:44.568Z,21.11
2019-05-18T09:51:44.587Z,21.14
2019-05-18T09:52:45.960Z,21.15
2019-05-18T09:53:51.517Z,21.21
2019-05-18T09:54:45.587Z,21.24
2019-05-18T09:55:44.518Z,21.29
2019-05-18T09:56:44.493Z,21.29
2019-05-18T09:57:44.485Z,21.39
2019-05-18T09:58:44.474Z,21.39
2019-05-18T09:59:44.461Z,21.43
2019-05-18T10:00:44.573Z,21.50
2019-05-18T10:01:44.441Z,21.51
2019-05-18T10:02:44.432Z,21.52
2019-05-18T10:03:44.419Z,21.46
2019-05-18T10:04:44.408Z,21.48
2019-05-18T10:05:44.409Z,21.43
2019-05-18T10:06:44.390Z,21.51
2019-05-18T10:07:44.380Z,21.57
2019-05-18T10:08:44.383Z,21.61
2019-05-18T10:09:44.360Z,21.60
2019-05-18T10:10:44.363Z,21.51
2019-05-18T10:11:44.338Z,21.50
2019-05-18T10:12:44.365Z,21.45
2019-05-18T10:13:44.323Z,21.45
2019-05-18T10:14:44.328Z,21.48
2019-05-18T10:15:44.303Z,21.52
2019-05-18T10:16:44.278Z,21.46
2019-05-18T10:17:44.267Z,21.51
2019-05-18T10:18:44.256Z,21.48
2019-05-18T10:19:44.244Z,21.51
2019-05-18T10:20:44.248Z,21.54
2019-05-18T10:21:44.232Z,21.58
2019-05-18T10:22:53.839Z,21.58
2019-05-18T10:23:45.197Z,21.62
2019-05-18T10:24:44.206Z,21.60
2019-05-18T10:25:44.187Z,21.69
2019-05-18T10:26:44.169Z,21.67
2019-05-18T10:27:44.159Z,21.69
2019-05-18T10:28:44.155Z,21.73
2019-05-18T10:29:46.623Z,21.73
2019-05-18T10:30:44.140Z,21.76
2019-05-18T10:31:44.121Z,21.95
2019-05-18T10:32:44.103Z,21.95
2019-05-18T10:33:44.094Z,21.92
2019-05-18T10:34:44.114Z,22.07
2019-05-18T10:35:44.082Z,22.06
2019-05-18T10:36:44.058Z,22.13
2019-05-18T10:37:44.074Z,22.13
2019-05-18T10:38:44.039Z,22.28
2019-05-18T10:39:44.033Z,22.32
2019-05-18T10:40:44.040Z,22.22
2019-05-18T10:41:44.008Z,22.32
2019-05-18T10:42:44.027Z,22.38
2019-05-18T10:43:47.033Z,22.18
2019-05-18T10:44:44.011Z,22.29
2019-05-18T10:45:45.137Z,22.20
2019-05-18T10:46:43.972Z,22.20
2019-05-18T10:47:43.945Z,22.28
2019-05-18T10:48:43.931Z,22.35
2019-05-18T10:49:43.921Z,22.38
2019-05-18T10:50:43.925Z,22.59
2019-05-18T10:51:43.930Z,22.68
2019-05-18T10:52:43.890Z,22.73
2019-05-18T10:53:43.904Z,22.76
2019-05-18T10:54:43.887Z,22.80
2019-05-18T10:55:43.865Z,22.78
2019-05-18T10:56:43.858Z,22.84
2019-05-18T10:57:43.840Z,22.84
2019-05-18T10:58:43.827Z,22.91
2019-05-18T10:59:43.817Z,22.90
2019-05-18T11:00:43.811Z,22.99
2019-05-18T11:01:44.181Z,23.03
2019-05-18T11:02:43.831Z,23.13
2019-05-18T11:03:43.771Z,23.13
2019-05-18T11:04:43.760Z,23.10
2019-05-18T11:05:43.759Z,23.15
2019-05-18T11:06:43.742Z,23.17
2019-05-18T11:07:43.737Z,23.12
2019-05-18T11:08:43.716Z,23.27
2019-05-18T11:09:43.707Z,23.24
2019-05-18T11:10:43.714Z,23.28
2019-05-18T11:11:43.685Z,23.13
2019-05-18T11:12:43.683Z,23.10
2019-05-18T11:13:43.663Z,23.15
2019-05-18T11:14:43.654Z,23.17
2019-05-18T11:15:43.655Z,23.08
2019-05-18T11:16:43.633Z,23.10
2019-05-18T11:17:43.840Z,23.12
2019-05-18T11:18:43.610Z,23.10
2019-05-18T11:19:43.599Z,23.10
2019-05-18T11:20:43.629Z,23.23
2019-05-18T11:21:43.592Z,23.28
2019-05-18T11:22:43.591Z,23.32
2019-05-18T11:23:47.479Z,23.32
2019-05-18T11:24:43.550Z,23.32
2019-05-18T11:25:43.542Z,23.39
2019-05-18T11:26:43.531Z,23.43
2019-05-18T11:27:43.523Z,23.54
2019-05-18T11:28:43.503Z,23.56
2019-05-18T11:29:43.496Z,23.58
2019-05-18T11:30:43.479Z,23.56
2019-05-18T11:31:43.498Z,23.51
2019-05-18T11:32:43.465Z,23.59
2019-05-18T11:33:43.447Z,23.47
2019-05-18T11:34:43.454Z,23.51
2019-05-18T11:35:43.441Z,23.46
2019-05-18T11:36:43.763Z,23.43
2019-05-18T11:37:45.935Z,23.41
2019-05-18T11:38:43.396Z,23.41
2019-05-18T11:39:43.386Z,23.37
2019-05-18T11:40:43.372Z,23.36
2019-05-18T11:41:43.661Z,23.32
2019-05-18T11:42:43.358Z,23.31
2019-05-18T11:43:43.347Z,23.39
2019-05-18T11:44:43.332Z,23.37
2019-05-18T11:45:43.323Z,23.32
2019-05-18T11:46:43.313Z,23.17
2019-05-18T11:47:43.307Z,23.12
2019-05-18T11:48:43.302Z,23.03
2019-05-18T11:49:43.317Z,22.91
2019-05-18T11:50:43.265Z,22.98
2019-05-18T11:51:43.258Z,22.81
2019-05-18T11:52:43.252Z,22.80
2019-05-18T11:53:57.228Z,22.70
2019-05-18T11:54:44.224Z,22.73
2019-05-18T11:55:43.215Z,22.81
2019-05-18T11:56:43.206Z,22.72
2019-05-18T11:57:43.192Z,22.68
2019-05-18T11:58:43.193Z,22.66
2019-05-18T11:59:43.171Z,22.54
2019-05-18T12:00:43.206Z,22.62
2019-05-18T12:01:43.154Z,22.53
2019-05-18T12:02:43.137Z,22.63
2019-05-18T12:03:43.134Z,22.50
2019-05-18T12:04:43.162Z,22.53
2019-05-18T12:05:43.109Z,22.44
2019-05-18T12:06:43.108Z,22.38
2019-05-18T12:07:43.082Z,22.45
2019-05-18T12:08:43.076Z,22.35
2019-05-18T12:09:43.061Z,22.32
2019-05-18T12:10:43.061Z,22.33
2019-05-18T12:11:43.044Z,22.32
2019-05-18T12:12:43.087Z,22.18
2019-05-18T12:13:43.018Z,22.23
2019-05-18T12:14:43.010Z,22.29
2019-05-18T12:15:42.995Z,22.18
2019-05-18T12:16:42.987Z,22.11
2019-05-18T12:17:42.973Z,22.20
2019-05-18T12:18:42.962Z,22.23
2019-05-18T12:19:42.970Z,22.13
2019-05-18T12:20:42.940Z,22.25
2019-05-18T12:21:42.932Z,22.29
2019-05-18T12:22:42.929Z,22.25
2019-05-18T12:23:42.910Z,22.22
2019-05-18T12:24:42.898Z,22.28
2019-05-18T12:25:42.894Z,22.26
2019-05-18T12:26:42.889Z,22.18
2019-05-18T12:27:43.290Z,22.30
2019-05-18T12:28:42.853Z,22.32
2019-05-18T12:29:42.844Z,22.29
2019-05-18T12:30:42.838Z,22.30
2019-05-18T12:31:42.825Z,22.32
2019-05-18T12:32:42.832Z,22.32
2019-05-18T12:33:42.825Z,22.51
2019-05-18T12:34:45.039Z,22.45
2019-05-18T12:35:42.777Z,22.47
2019-05-18T12:36:42.766Z,22.57
2019-05-18T12:37:42.765Z,22.60
2019-05-18T12:38:42.741Z,22.59
2019-05-18T12:39:42.752Z,22.59
2019-05-18T12:40:42.717Z,22.57
2019-05-18T12:41:42.710Z,22.55
2019-05-18T12:42:42.715Z,22.55
2019-05-18T12:43:42.684Z,22.59
2019-05-18T12:44:42.679Z,22.54
2019-05-18T12:45:42.669Z,22.55
2019-05-18T12:46:42.669Z,22.53
2019-05-18T12:47:42.646Z,22.60
2019-05-18T12:48:42.631Z,22.60
2019-05-18T12:49:42.623Z,22.47
2019-05-18T12:50:42.609Z,22.51
2019-05-18T12:51:42.598Z,22.45
2019-05-18T12:52:42.587Z,22.48
2019-05-18T12:53:42.574Z,22.43
2019-05-18T12:54:46.591Z,22.53
2019-05-18T12:55:42.552Z,22.43
2019-05-18T12:56:42.547Z,22.47
2019-05-18T12:57:42.529Z,22.44
2019-05-18T12:58:42.518Z,22.50
2019-05-18T12:59:42.518Z,22.47
2019-05-18T13:00:42.515Z,22.33